Time;durP1;ratioP1;P1;durP2;ratioP2;P2;SDS_P1;SDS_P2;PMS_P1;PMS_P2;Temp;Humidity;BMP_temperature;BMP_pressure;BME280_temperature;BME280_humidity;BME280_pressure;Samples;Min_cycle;Max_cycle;Signal;HPM_P1;HPM_P2
2021/09/02 00:01:42;;;;;;;5.47;2.42;;;;;;;17.56;62.24;99828.23;1616937;87;21529;-58
2021/09/02 00:04:09;;;;;;;7.28;2.83;;;;;;;17.54;62.63;99835.05;1601917;87;21046;-58
2021/09/02 00:06:36;;;;;;;4.72;1.85;;;;;;;17.51;62.80;99827.95;1592147;87;22116;-57
2021/09/02 00:09:02;;;;;;;5.83;2.00;;;;;;;17.52;62.37;99825.63;1644751;85;21179;-58
2021/09/02 00:11:28;;;;;;;6.53;2.58;;;;;;;17.58;62.10;99839.50;1641263;85;21591;-58
2021/09/02 00:13:57;;;;;;;9.05;2.12;;;;;;;17.59;61.67;99835.85;1601809;86;21161;-58
2021/09/02 00:16:23;;;;;;;6.75;3.42;;;;;;;17.58;61.50;99831.52;1654945;85;21124;-58
2021/09/02 00:18:52;;;;;;;6.70;2.62;;;;;;;17.55;61.12;99836.72;1636534;86;21751;-58
2021/09/02 00:21:18;;;;;;;5.30;2.47;;;;;;;17.50;61.13;99839.10;1671958;84;21069;-58
2021/09/02 00:23:45;;;;;;;7.70;3.27;;;;;;;17.43;61.22;99838.15;1654637;85;21120;-57
2021/09/02 00:26:11;;;;;;;8.50;3.47;;;;;;;17.37;61.36;99844.21;1655235;85;21136;-56
2021/09/02 00:28:37;;;;;;;5.37;2.60;;;;;;;17.38;61.21;99841.37;1629589;86;21155;-56
2021/09/02 00:31:05;;;;;;;9.45;3.70;;;;;;;17.40;60.95;99843.83;1653594;85;21140;-56
2021/09/02 00:33:31;;;;;;;6.85;3.40;;;;;;;17.34;60.26;99848.05;1616003;86;21553;-57
2021/09/02 00:35:58;;;;;;;6.50;2.72;;;;;;;17.29;60.42;99849.59;1660530;85;21769;-57
2021/09/02 00:38:25;;;;;;;7.20;3.08;;;;;;;17.23;60.44;99849.80;1611629;86;21114;-57
2021/09/02 00:40:51;;;;;;;5.87;2.37;;;;;;;17.16;60.51;99852.34;1593516;87;21602;-57
2021/09/02 00:43:17;;;;;;;5.87;2.80;;;;;;;17.09;60.59;99856.73;1634984;85;21140;-57
2021/09/02 00:45:44;;;;;;;8.05;3.20;;;;;;;17.01;60.72;99850.98;1662851;84;21510;-57
2021/09/02 00:48:10;;;;;;;9.10;3.02;;;;;;;16.96;60.83;99853.84;1629541;86;21166;-57
2021/09/02 00:50:37;;;;;;;6.33;2.67;;;;;;;16.98;60.99;99855.33;1651705;85;21598;-57
2021/09/02 00:53:03;;;;;;;6.72;2.70;;;;;;;16.96;60.91;99857.31;1659224;85;21559;-57
2021/09/02 00:55:31;;;;;;;8.18;3.10;;;;;;;16.94;60.99;99858.50;1631730;85;21145;-57
2021/09/02 00:58:00;;;;;;;6.40;3.10;;;;;;;16.89;61.05;99858.55;1615645;86;21110;-57
2021/09/02 01:00:26;;;;;;;7.42;3.02;;;;;;;16.83;61.19;99862.38;1635349;86;21155;-57
2021/09/02 01:02:53;;;;;;;6.90;3.50;;;;;;;16.77;61.41;99868.39;1633445;86;21087;-57
2021/09/02 01:05:20;;;;;;;7.72;2.90;;;;;;;16.72;61.60;99867.06;1648808;85;21362;-57
2021/09/02 01:07:47;;;;;;;7.40;3.30;;;;;;;16.71;61.67;99868.59;1631302;86;21078;-57
2021/09/02 01:10:14;;;;;;;5.65;2.27;;;;;;;16.65;61.87;99869.29;1633937;86;21730;-57
2021/09/02 01:12:47;;;;;;;5.70;2.92;;;;;;;16.56;62.08;99869.84;1650675;85;21112;-57
2021/09/02 01:15:20;;;;;;;9.53;3.60;;;;;;;16.48;62.50;99879.99;1622559;86;21594;-57
2021/09/02 01:17:49;;;;;;;7.53;3.60;;;;;;;16.41;62.73;99881.70;1628031;86;21586;-57
2021/09/02 01:20:19;;;;;;;8.53;4.03;;;;;;;16.39;62.93;99878.87;1645428;86;21065;-57
2021/09/02 01:22:46;;;;;;;8.18;3.55;;;;;;;16.40;63.00;99874.72;1648885;85;21513;-57
2021/09/02 01:25:16;;;;;;;7.42;3.17;;;;;;;16.38;63.18;99878.05;1636481;85;21643;-57
2021/09/02 01:27:44;;;;;;;7.10;3.50;;;;;;;16.35;63.15;99873.09;1663811;84;21559;-57
2021/09/02 01:30:13;;;;;;;6.87;2.98;;;;;;;16.32;63.25;99870.77;1642867;84;21519;-57
2021/09/02 01:32:40;;;;;;;5.90;3.37;;;;;;;16.29;63.35;99869.30;1640993;84;21910;-57
2021/09/02 01:35:08;;;;;;;7.85;3.25;;;;;;;16.31;63.51;99869.95;1663538;84;21033;-57
2021/09/02 01:37:43;;;;;;;9.80;4.17;;;;;;;16.35;63.50;99865.94;1656656;84;21036;-58
2021/09/02 01:40:16;;;;;;;7.10;4.05;;;;;;;16.36;63.52;99862.80;1664029;84;21713;-57
2021/09/02 01:42:43;;;;;;;9.85;4.10;;;;;;;16.35;63.61;99873.09;1625777;86;21100;-57
2021/09/02 01:45:11;;;;;;;7.80;3.72;;;;;;;16.30;63.85;99869.61;1646025;85;21625;-57
2021/09/02 01:47:37;;;;;;;7.03;3.33;;;;;;;16.28;64.03;99870.80;1670367;84;21121;-57
2021/09/02 01:50:12;;;;;;;7.08;2.77;;;;;;;16.22;64.19;99880.27;1655859;84;21150;-57
2021/09/02 01:52:39;;;;;;;6.97;3.87;;;;;;;16.20;64.36;99870.83;1663417;84;21079;-57
2021/09/02 01:55:08;;;;;;;6.33;3.40;;;;;;;16.25;64.53;99883.09;1655361;84;21080;-57
2021/09/02 01:57:35;;;;;;;6.33;2.85;;;;;;;16.24;64.48;99870.33;1666612;84;21120;-57
2021/09/02 02:00:05;;;;;;;8.18;3.87;;;;;;;16.23;64.54;99866.00;1660814;84;21137;-57
2021/09/02 02:02:32;;;;;;;9.13;4.00;;;;;;;16.18;64.82;99869.67;1662297;84;21104;-57
2021/09/02 02:04:58;;;;;;;8.03;3.70;;;;;;;16.09;65.00;99870.20;1662543;84;21330;-57
2021/09/02 02:07:25;;;;;;;6.53;2.98;;;;;;;16.03;65.21;99870.87;1641511;84;21347;-57
2021/09/02 02:09:53;;;;;;;6.75;2.90;;;;;;;16.03;65.37;99873.53;1648311;85;21199;-57
2021/09/02 02:12:20;;;;;;;6.80;3.30;;;;;;;16.09;65.37;99872.86;1627167;86;21153;-57
2021/09/02 02:14:46;;;;;;;7.92;3.42;;;;;;;16.12;65.39;99861.91;1659895;84;21582;-57
2021/09/02 02:17:13;;;;;;;6.75;3.22;;;;;;;16.15;65.32;99872.19;1656053;85;21088;-57
2021/09/02 02:19:39;;;;;;;6.25;3.12;;;;;;;16.13;65.39;99865.38;1656061;85;21085;-57
2021/09/02 02:22:06;;;;;;;6.78;3.75;;;;;;;16.11;65.53;99870.86;1665112;85;21519;-57
2021/09/02 02:24:32;;;;;;;10.13;4.08;;;;;;;16.07;65.49;99867.38;1660699;85;21155;-57
2021/09/02 02:26:59;;;;;;;6.97;3.10;;;;;;;16.07;65.63;99872.22;1639191;85;21038;-57
2021/09/02 02:29:25;;;;;;;7.03;3.30;;;;;;;16.11;65.59;99868.20;1656801;85;21067;-57
2021/09/02 02:31:52;;;;;;;7.55;3.45;;;;;;;16.12;65.61;99863.71;1641627;85;21083;-56
2021/09/02 02:34:18;;;;;;;12.33;3.40;;;;;;;16.12;65.71;99869.88;1654732;85;21115;-57
2021/09/02 02:36:45;;;;;;;10.85;3.92;;;;;;;16.09;65.85;99865.41;1656285;85;21076;-57
2021/09/02 02:39:11;;;;;;;6.92;3.10;;;;;;;16.05;66.01;99868.88;1658565;85;21108;-57
2021/09/02 02:41:38;;;;;;;7.28;3.83;;;;;;;15.99;66.16;99872.23;1659855;85;21075;-57
2021/09/02 02:44:04;;;;;;;6.53;3.52;;;;;;;16.00;66.30;99871.73;1657607;85;21093;-57
2021/09/02 02:46:31;;;;;;;8.85;3.65;;;;;;;15.97;66.41;99879.55;1653593;85;21125;-57
2021/09/02 02:48:59;;;;;;;6.97;3.47;;;;;;;15.93;66.63;99877.70;1660179;85;21085;-57
2021/09/02 02:51:25;;;;;;;7.67;3.87;;;;;;;15.91;66.67;99884.20;1654104;85;21080;-57
2021/09/02 02:53:52;;;;;;;7.83;3.83;;;;;;;15.86;66.87;99878.57;1653962;85;21087;-57
2021/09/02 02:56:19;;;;;;;6.37;3.47;;;;;;;15.89;66.83;99879.56;1642851;85;21129;-57
2021/09/02 02:58:48;;;;;;;8.63;4.15;;;;;;;15.91;66.80;99884.20;1611586;87;21626;-57
2021/09/02 03:01:15;;;;;;;6.53;3.65;;;;;;;15.89;66.89;99891.50;1655904;85;21458;-57
2021/09/02 03:03:41;;;;;;;10.08;4.30;;;;;;;15.87;66.99;99877.55;1631685;85;21098;-57
2021/09/02 03:06:09;;;;;;;10.28;4.62;;;;;;;15.84;67.02;99885.38;1651706;85;21086;-57
2021/09/02 03:08:36;;;;;;;8.05;4.00;;;;;;;15.88;67.06;99881.88;1654450;85;21680;-57
2021/09/02 03:11:05;;;;;;;8.98;4.58;;;;;;;15.96;66.73;99872.57;1656473;85;22012;-58
2021/09/02 03:13:32;;;;;;;9.30;4.25;;;;;;;15.97;66.63;99878.22;1649515;85;21064;-56
2021/09/02 03:16:00;;;;;;;8.93;4.28;;;;;;;15.94;66.67;99884.68;1646152;85;21093;-57
2021/09/02 03:18:27;;;;;;;10.72;4.92;;;;;;;15.92;66.79;99883.17;1644560;85;21163;-57
2021/09/02 03:20:55;;;;;;;8.35;4.67;;;;;;;15.93;66.62;99880.36;1622803;86;21088;-56
2021/09/02 03:23:21;;;;;;;9.20;4.25;;;;;;;16.00;66.56;99877.85;1627315;86;21117;-57
2021/09/02 03:25:48;;;;;;;9.08;5.03;;;;;;;16.05;66.45;99882.66;1637737;84;21093;-57
2021/09/02 03:28:15;;;;;;;7.58;4.33;;;;;;;16.07;66.35;99884.16;1655299;84;21151;-57
2021/09/02 03:30:42;;;;;;;7.45;4.22;;;;;;;16.06;66.43;99883.81;1633774;84;21609;-57
2021/09/02 03:33:08;;;;;;;7.95;4.70;;;;;;;16.06;66.49;99885.14;1637248;84;21454;-57
2021/09/02 03:35:35;;;;;;;6.80;4.37;;;;;;;16.13;66.17;99890.59;1668172;84;21134;-57
2021/09/02 03:38:01;;;;;;;8.33;4.42;;;;;;;16.19;66.11;99893.05;1664610;84;21577;-57
2021/09/02 03:40:28;;;;;;;9.35;4.40;;;;;;;16.16;65.93;99888.42;1667202;84;21092;-57
2021/09/02 03:42:55;;;;;;;8.25;4.42;;;;;;;16.13;65.96;99887.43;1665293;84;21073;-57
2021/09/02 03:45:22;;;;;;;6.85;4.40;;;;;;;16.13;65.97;99887.43;1643786;84;21148;-57
2021/09/02 03:47:49;;;;;;;7.17;4.33;;;;;;;16.18;65.63;99890.91;1654746;84;21143;-57
2021/09/02 03:50:17;;;;;;;7.00;4.30;;;;;;;16.20;65.41;99893.39;1633293;84;21159;-57
2021/09/02 03:52:43;;;;;;;6.97;3.72;;;;;;;16.19;65.46;99898.36;1665750;84;21108;-57
2021/09/02 03:55:11;;;;;;;8.48;4.03;;;;;;;16.19;65.42;99900.53;1629252;84;21535;-56
2021/09/02 03:57:39;;;;;;;8.38;4.47;;;;;;;16.19;65.42;99899.21;1667642;84;21103;-57
2021/09/02 04:00:08;;;;;;;9.43;4.60;;;;;;;16.25;65.19;99900.34;1664826;84;21852;-56
2021/09/02 04:02:35;;;;;;;7.92;4.10;;;;;;;16.28;64.98;99902.15;1641159;84;21068;-57
2021/09/02 04:05:03;;;;;;;12.68;7.00;;;;;;;16.28;65.17;99903.48;1659558;84;21017;-58
2021/09/02 04:07:29;;;;;;;9.15;5.65;;;;;;;16.26;65.53;99903.34;1658582;84;21080;-57
2021/09/02 04:09:55;;;;;;;9.40;4.85;;;;;;;16.27;65.27;99902.32;1633565;84;21084;-57
2021/09/02 04:12:22;;;;;;;8.63;5.15;;;;;;;16.33;65.09;99910.94;1661441;84;21109;-56
2021/09/02 04:14:48;;;;;;;11.60;4.85;;;;;;;16.39;65.09;99908.93;1625015;85;21057;-56
2021/09/02 04:17:15;;;;;;;9.60;5.08;;;;;;;16.43;64.72;99915.53;1642778;85;21129;-57
2021/09/02 04:19:43;;;;;;;7.00;4.55;;;;;;;16.44;64.50;99912.38;1670058;84;21669;-56
2021/09/02 04:22:09;;;;;;;9.13;3.92;;;;;;;16.45;64.17;99920.17;1627234;85;21096;-56
2021/09/02 04:24:36;;;;;;;8.78;4.05;;;;;;;16.47;64.07;99920.00;1621733;86;21248;-57
2021/09/02 04:27:04;;;;;;;8.90;4.25;;;;;;;16.47;63.88;99919.48;1655223;84;21147;-56
2021/09/02 04:29:30;;;;;;;15.38;3.87;;;;;;;16.47;64.31;99920.00;1633013;86;21304;-56
2021/09/02 04:31:57;;;;;;;6.78;4.30;;;;;;;16.46;63.87;99916.53;1658845;84;21045;-57
2021/09/02 04:34:23;;;;;;;7.22;3.80;;;;;;;16.42;63.86;99919.18;1658378;84;21088;-57
2021/09/02 04:36:50;;;;;;;7.15;3.70;;;;;;;16.39;63.65;99917.37;1656228;84;21169;-58
2021/09/02 04:39:16;;;;;;;7.80;4.00;;;;;;;16.39;63.81;99915.56;1654948;84;21085;-57
2021/09/02 04:41:43;;;;;;;7.28;3.60;;;;;;;16.41;63.56;99913.56;1631747;84;21100;-57
2021/09/02 04:44:10;;;;;;;7.90;3.60;;;;;;;16.41;63.48;99925.98;1650522;84;21717;-55
2021/09/02 04:46:36;;;;;;;6.83;4.05;;;;;;;16.37;63.73;99920.70;1657829;84;21073;-56
2021/09/02 04:52:51;;;;;;;8.03;3.95;;;;;;;16.39;63.40;99919.55;1652888;84;21018;-57
2021/09/02 04:55:18;;;;;;;6.70;3.85;;;;;;;16.40;62.96;99929.16;1655299;84;21160;-57
2021/09/02 04:57:45;;;;;;;6.50;3.50;;;;;;;16.35;63.09;99925.67;1634740;86;21139;-57
2021/09/02 05:00:13;;;;;;;8.60;3.87;;;;;;;16.35;63.17;99927.52;1656646;84;21044;-59
2021/09/02 05:02:40;;;;;;;7.08;3.60;;;;;;;16.34;63.10;99928.53;1642184;85;60246;-56
2021/09/02 05:05:07;;;;;;;5.65;3.37;;;;;;;16.39;62.82;99929.32;1644877;85;21084;-56
2021/09/02 05:07:34;;;;;;;6.35;3.17;;;;;;;16.39;62.67;99924.86;1643588;85;21109;-58
2021/09/02 05:10:06;;;;;;;7.15;3.58;;;;;;;16.39;62.79;99931.50;1643484;85;21346;-55
2021/09/02 05:12:33;;;;;;;8.55;3.20;;;;;;;16.38;62.29;99927.17;1640554;85;21098;-57
2021/09/02 05:15:00;;;;;;;7.20;3.45;;;;;;;16.36;62.47;99938.47;1656360;84;21765;-57
2021/09/02 05:17:27;;;;;;;10.38;3.75;;;;;;;16.36;62.58;99926.52;1655392;84;21129;-59
2021/09/02 05:19:54;;;;;;;8.58;3.37;;;;;;;16.44;62.43;99923.84;1646641;84;21113;-60
2021/09/02 05:22:21;;;;;;;8.75;3.47;;;;;;;16.48;62.20;99930.45;1637631;86;21588;-57
2021/09/02 05:24:48;;;;;;;6.72;3.50;;;;;;;16.45;61.93;99924.66;1659316;84;21128;-59
2021/09/02 05:27:15;;;;;;;7.65;3.70;;;;;;;16.42;61.78;99908.56;1653414;84;21136;-58
2021/09/02 05:29:41;;;;;;;7.35;3.25;;;;;;;16.35;61.82;99908.42;1653869;84;21112;-57
2021/09/02 05:32:08;;;;;;;7.72;3.92;;;;;;;16.33;61.93;99929.52;1632175;84;22602;-57
2021/09/02 05:34:35;;;;;;;7.03;3.27;;;;;;;16.34;62.26;99928.53;1656473;84;21153;-57
2021/09/02 05:37:03;;;;;;;6.58;4.10;;;;;;;16.32;62.18;99927.38;1662407;84;21077;-57
2021/09/02 05:39:30;;;;;;;7.83;3.80;;;;;;;16.30;62.54;99924.03;1656079;84;21131;-57
2021/09/02 05:41:56;;;;;;;6.37;3.55;;;;;;;16.27;62.27;99933.70;1668095;84;21677;-57
2021/09/02 05:44:23;;;;;;;7.22;3.98;;;;;;;16.26;62.51;99927.23;1656943;84;21124;-57
2021/09/02 05:46:49;;;;;;;7.42;4.08;;;;;;;16.31;62.03;99923.56;1657307;84;21138;-57
2021/09/02 05:49:16;;;;;;;7.60;3.87;;;;;;;16.32;61.58;99927.85;1660040;84;21673;-57
2021/09/02 05:51:44;;;;;;;7.28;3.52;;;;;;;16.29;61.82;99935.67;1662489;84;21169;-59
2021/09/02 05:54:13;;;;;;;7.17;3.33;;;;;;;16.28;62.18;99931.35;1650992;84;21762;-57
2021/09/02 05:56:40;;;;;;;10.08;3.70;;;;;;;16.31;61.93;99943.47;1659726;84;21062;-57
2021/09/02 05:59:07;;;;;;;8.53;3.77;;;;;;;16.38;61.54;99935.14;1660308;84;21577;-57
2021/09/02 06:01:33;;;;;;;11.60;3.95;;;;;;;16.44;61.76;99940.25;1648794;84;21196;-57
2021/09/02 06:03:59;;;;;;;8.78;3.40;;;;;;;16.46;60.83;99939.09;1652770;85;21031;-57
2021/09/02 06:06:26;;;;;;;5.92;2.80;;;;;;;16.48;60.90;99941.58;1660995;84;21094;-57
2021/09/02 06:08:53;;;;;;;6.87;3.30;;;;;;;16.52;60.61;99945.53;1654180;84;21058;-56
2021/09/02 06:11:19;;;;;;;6.67;3.33;;;;;;;16.53;59.99;99933.92;1627720;86;21061;-57
2021/09/02 06:13:47;;;;;;;7.03;3.17;;;;;;;16.51;60.06;99935.94;1659535;84;22399;-57
2021/09/02 06:16:14;;;;;;;7.83;3.62;;;;;;;16.57;60.04;99942.38;1651143;84;21146;-56
2021/09/02 06:18:41;;;;;;;7.28;3.17;;;;;;;16.67;59.54;99944.31;1632639;86;21175;-58
2021/09/02 06:21:09;;;;;;;6.17;2.92;;;;;;;16.77;59.14;99950.75;1600770;87;21630;-58
2021/09/02 06:23:35;;;;;;;6.42;3.45;;;;;;;16.81;59.16;99944.92;1630214;86;21618;-57
2021/09/02 06:26:02;;;;;;;7.97;3.25;;;;;;;16.84;57.47;99955.69;1630917;86;21159;-57
2021/09/02 06:28:28;;;;;;;6.05;2.58;;;;;;;16.83;57.70;99957.52;1604575;86;22299;-58
2021/09/02 06:30:55;;;;;;;6.62;2.80;;;;;;;16.82;57.04;99949.73;1604700;86;21080;-58
2021/09/02 06:33:21;;;;;;;6.65;2.72;;;;;;;16.77;56.60;99952.89;1627219;86;21623;-58
2021/09/02 06:35:48;;;;;;;6.97;3.15;;;;;;;16.73;57.19;99959.57;1629303;86;21072;-58
2021/09/02 06:38:15;;;;;;;7.80;2.77;;;;;;;16.67;56.26;99961.58;1627741;86;21120;-57
2021/09/02 06:40:41;;;;;;;7.08;2.92;;;;;;;16.60;55.66;99960.11;1602381;87;21347;-58
2021/09/02 06:43:10;;;;;;;7.45;3.35;;;;;;;16.54;55.20;99971.41;1622832;86;21038;-58
2021/09/02 06:45:38;;;;;;;8.30;2.83;;;;;;;16.48;55.84;99982.23;1625617;86;21167;-57
2021/09/02 06:48:06;;;;;;;8.33;2.52;;;;;;;16.42;55.43;99978.92;1628531;86;22023;-57
2021/09/02 06:50:32;;;;;;;8.93;2.67;;;;;;;16.37;54.81;99977.28;1627482;86;21191;-58
2021/09/02 06:52:58;;;;;;;6.28;3.12;;;;;;;16.29;55.05;99986.11;1627177;86;21180;-58
2021/09/02 06:57:17;;;;;;;7.80;2.33;;;;;;;16.16;54.88;99977.85;1800416;77;22548;-56
2021/09/02 06:59:44;;;;;;;5.37;1.80;;;;;;;16.06;55.44;99989.97;1772946;78;21141;-56
2021/09/02 07:02:10;;;;;;;5.55;2.05;;;;;;;15.96;53.36;99987.99;1772023;78;21198;-57
2021/09/02 07:04:36;;;;;;;4.70;1.85;;;;;;;15.92;53.02;99997.27;1781313;78;21058;-58
2021/09/02 07:07:04;;;;;;;6.15;1.57;;;;;;;15.87;52.52;100001.77;1771136;78;22265;-58
2021/09/02 07:09:32;;;;;;;9.05;2.50;;;;;;;15.84;51.35;100006.08;1772120;78;21132;-58
2021/09/02 07:12:00;;;;;;;6.83;1.95;;;;;;;15.85;50.88;100002.41;1776271;78;21002;-58
2021/09/02 07:14:27;;;;;;;5.42;2.10;;;;;;;15.90;51.22;100000.59;1716600;80;21210;-57
2021/09/02 07:16:53;;;;;;;4.50;1.42;;;;;;;15.95;51.38;99990.30;1740524;80;21069;-57
2021/09/02 07:19:20;;;;;;;5.97;2.27;;;;;;;16.02;50.65;99997.10;1705089;80;21035;-56
2021/09/02 07:21:46;;;;;;;8.58;2.35;;;;;;;16.07;50.82;100006.71;1739351;80;21517;-57
2021/09/02 07:24:13;;;;;;;4.53;1.77;;;;;;;16.11;51.98;100008.87;1707368;81;21107;-57
2021/09/02 07:26:39;;;;;;;5.50;1.92;;;;;;;16.14;51.29;100015.17;1743749;80;21033;-57
2021/09/02 07:29:07;;;;;;;9.15;1.98;;;;;;;16.09;47.61;100008.22;1701191;81;21486;-57
2021/09/02 07:31:36;;;;;;;5.70;1.50;;;;;;;16.01;45.92;100007.41;1695358;81;21062;-58
2021/09/02 07:34:03;;;;;;;6.22;2.00;;;;;;;15.96;46.29;100002.08;1737217;80;20975;-57
2021/09/02 07:36:29;;;;;;;4.90;1.70;;;;;;;16.00;44.51;100004.41;1729847;80;21543;-57
2021/09/02 07:38:56;;;;;;;6.97;1.45;;;;;;;16.09;44.68;100004.23;1705555;82;21139;-57
2021/09/02 07:41:22;;;;;;;7.03;1.30;;;;;;;16.19;42.65;99996.58;1737553;80;21069;-58
2021/09/02 07:43:51;;;;;;;8.23;1.92;;;;;;;16.28;43.13;99991.59;1726291;81;21133;-57
2021/09/02 07:46:17;;;;;;;6.40;1.35;;;;;;;16.34;41.50;99994.40;1730081;81;21829;-56
2021/09/02 07:48:46;;;;;;;5.00;1.22;;;;;;;16.41;41.12;99997.20;1734043;80;22544;-57
2021/09/02 07:51:13;;;;;;;7.75;1.30;;;;;;;16.49;41.80;99991.02;1738032;81;23245;-57
2021/09/02 07:53:40;;;;;;;6.47;1.40;;;;;;;16.58;41.96;99979.39;1738374;80;21683;-57
2021/09/02 07:56:06;;;;;;;7.15;1.77;;;;;;;16.69;41.81;99983.48;1735627;80;21144;-57
2021/09/02 07:58:33;;;;;;;6.67;1.77;;;;;;;16.78;42.80;99997.55;1738247;80;21459;-58
2021/09/02 08:00:59;;;;;;;4.17;1.27;;;;;;;16.82;42.24;99989.58;1740822;80;21093;-57
2021/09/02 08:03:25;;;;;;;4.50;1.60;;;;;;;16.82;42.70;100001.53;1734812;80;21057;-57
2021/09/02 08:05:53;;;;;;;5.30;1.40;;;;;;;16.82;42.76;99999.70;1774335;78;21129;-57
2021/09/02 08:08:19;;;;;;;5.20;1.35;;;;;;;16.80;42.44;99977.80;1766996;79;21034;-57
2021/09/02 08:10:47;;;;;;;7.00;1.45;;;;;;;16.80;43.03;99997.72;1704591;80;21540;-57
2021/09/02 08:13:16;;;;;;;5.87;1.70;;;;;;;16.79;42.93;99987.27;1738699;80;21595;-57
2021/09/02 08:15:42;;;;;;;7.15;1.60;;;;;;;16.80;43.25;99992.92;1736742;80;23379;-57
2021/09/02 08:18:09;;;;;;;6.50;2.33;;;;;;;16.79;43.63;100004.53;1738806;80;21061;-57
2021/09/02 08:20:36;;;;;;;3.45;1.15;;;;;;;16.81;44.33;100014.00;1777561;79;21069;-60
2021/09/02 08:23:03;;;;;;;5.33;1.60;;;;;;;16.83;42.81;100001.37;1732132;81;21041;-57
2021/09/02 08:25:30;;;;;;;6.92;1.42;;;;;;;16.86;41.75;100003.72;1777117;78;21046;-57
2021/09/02 08:27:56;;;;;;;4.60;1.50;;;;;;;16.87;42.11;99998.71;1770932;78;21113;-57
2021/09/02 08:30:24;;;;;;;4.03;1.22;;;;;;;16.94;42.37;99992.71;1773962;78;21011;-57
2021/09/02 08:32:51;;;;;;;4.12;1.10;;;;;;;16.95;41.25;99977.11;1749482;79;20999;-57
2021/09/02 08:35:24;;;;;;;3.90;1.30;;;;;;;16.91;42.69;100000.52;1780831;78;21536;-57
2021/09/02 08:37:52;;;;;;;4.42;1.50;;;;;;;16.85;42.48;99991.41;1699141;82;21097;-57
2021/09/02 08:40:21;;;;;;;3.35;1.07;;;;;;;16.80;43.32;99988.42;1739475;81;21051;-56
2021/09/02 08:42:50;;;;;;;7.83;1.60;;;;;;;16.74;43.68;99997.59;1742501;80;21041;-56
2021/09/02 08:45:17;;;;;;;5.90;1.52;;;;;;;16.71;43.67;100002.76;1768732;78;21101;-56
2021/09/02 08:47:47;;;;;;;6.03;1.70;;;;;;;16.76;43.92;100003.06;1709835;80;21114;-56
2021/09/02 08:50:16;;;;;;;4.15;1.52;;;;;;;16.82;41.59;100000.20;1771561;78;21015;-56
2021/09/02 08:52:42;;;;;;;3.25;1.02;;;;;;;16.88;40.51;99987.09;1774163;78;21132;-56
2021/09/02 08:55:11;;;;;;;5.60;1.47;;;;;;;16.96;41.16;99996.84;1769782;78;21070;-69
2021/09/02 08:57:37;;;;;;;4.40;1.40;;;;;;;17.05;41.49;99984.35;1739035;81;20966;-57
2021/09/02 09:00:05;;;;;;;4.85;1.00;;;;;;;17.15;42.42;99983.63;1746039;80;21066;-57
2021/09/02 09:02:32;;;;;;;2.95;1.00;;;;;;;17.21;41.89;99981.58;1774485;78;21081;-57
2021/09/02 09:05:10;;;;;;;6.78;1.27;;;;;;;17.18;40.08;99984.61;1736462;80;21062;-57
2021/09/02 09:07:45;;;;;;;5.58;1.25;;;;;;;17.18;41.17;99987.75;1743649;80;21070;-57
2021/09/02 09:10:19;;;;;;;3.45;0.95;;;;;;;17.18;40.39;99983.77;1742992;80;21125;-58
2021/09/02 09:12:51;;;;;;;4.97;1.50;;;;;;;17.18;39.72;99987.27;1747741;80;21067;-57
2021/09/02 09:15:25;;;;;;;2.47;0.70;;;;;;;17.18;40.01;99981.10;1741872;80;21072;-58
2021/09/02 09:17:53;;;;;;;3.45;1.20;;;;;;;17.18;40.67;100005.88;1741559;80;21113;-58
2021/09/02 09:20:22;;;;;;;4.83;1.20;;;;;;;17.20;39.91;99988.42;1692137;81;21059;-57
2021/09/02 09:22:57;;;;;;;3.92;0.93;;;;;;;17.17;40.38;99990.10;1722767;81;21059;-58
2021/09/02 09:25:25;;;;;;;3.77;1.10;;;;;;;17.16;41.51;99996.41;1687873;82;28703;-57
2021/09/02 09:27:56;;;;;;;5.05;1.12;;;;;;;17.17;39.86;99992.25;1720111;81;20991;-57
2021/09/02 09:30:33;;;;;;;5.45;1.20;;;;;;;17.18;38.34;99987.75;1667300;82;21149;-58
2021/09/02 09:33:04;;;;;;;5.40;1.20;;;;;;;17.17;40.07;100002.88;1686019;81;21095;-57
2021/09/02 09:35:36;;;;;;;3.75;1.02;;;;;;;17.14;39.07;99985.95;1687469;82;21091;-57
2021/09/02 09:38:19;;;;;;;4.53;1.45;;;;;;;17.11;39.67;100000.91;1689789;81;21331;-58
2021/09/02 09:40:51;;;;;;;3.50;1.00;;;;;;;17.08;39.72;100002.11;1738456;80;21564;-57
2021/09/02 09:43:23;;;;;;;5.35;1.20;;;;;;;17.06;39.07;100003.27;1712326;82;22696;-57
2021/09/02 09:45:54;;;;;;;7.37;1.90;;;;;;;17.11;39.82;100000.91;1734289;80;21133;-56
2021/09/02 09:48:28;;;;;;;7.80;1.07;;;;;;;17.14;39.79;100001.90;1775161;78;21090;-57
2021/09/02 09:51:14;;;;;;;4.70;1.75;;;;;;;17.19;40.62;100008.03;1735144;80;21517;-58
2021/09/02 09:53:49;;;;;;;5.25;1.00;;;;;;;17.29;40.54;99997.99;1733775;80;20998;-57
2021/09/02 09:56:20;;;;;;;4.55;1.42;;;;;;;17.39;39.44;99988.45;1748416;80;23303;-57
2021/09/02 09:58:48;;;;;;;6.20;1.47;;;;;;;17.43;38.22;100002.56;1707206;81;21047;-56
2021/09/02 10:01:15;;;;;;;4.58;1.07;;;;;;;17.50;37.40;100005.34;1775692;78;21144;-57
2021/09/02 10:03:45;;;;;;;8.13;1.15;;;;;;;17.52;36.95;100017.95;1773885;78;21074;-56
2021/09/02 10:06:13;;;;;;;4.55;1.25;;;;;;;17.52;37.34;100017.14;1770749;78;21156;-56
2021/09/02 10:08:43;;;;;;;4.30;1.12;;;;;;;17.50;37.77;100016.47;1740182;80;21362;-56
2021/09/02 10:11:11;;;;;;;4.25;0.90;;;;;;;17.45;37.90;100016.50;1742507;80;21094;-56
2021/09/02 10:13:38;;;;;;;4.80;1.05;;;;;;;17.44;38.26;100024.15;1707090;82;21759;-57
2021/09/02 10:16:05;;;;;;;4.97;1.05;;;;;;;17.38;38.89;100018.70;1740661;80;21034;-56
2021/09/02 10:18:33;;;;;;;6.30;1.10;;;;;;;17.33;39.63;100026.38;1704949;82;21110;-55
2021/09/02 10:21:05;;;;;;;5.03;1.17;;;;;;;17.24;39.54;100025.09;1753180;79;21028;-56
2021/09/02 10:23:31;;;;;;;4.30;1.10;;;;;;;17.18;38.80;100021.83;1774943;78;21478;-56
2021/09/02 10:25:58;;;;;;;3.58;0.80;;;;;;;17.16;39.45;100026.98;1753029;80;21070;-56
2021/09/02 10:31:33;;;;;;;;;;;;;;;17.20;40.17;100026.97;1773473;78;21136;-59
2021/09/02 10:33:59;;;;;;;4.33;1.25;;;;;;;17.19;40.65;100032.77;1780086;78;23204;-56
2021/09/02 10:36:31;;;;;;;3.98;1.37;;;;;;;17.16;40.47;100039.77;1711272;80;21102;-57
2021/09/02 10:38:57;;;;;;;4.83;1.30;;;;;;;17.16;38.42;100030.97;1739041;80;21053;-57
2021/09/02 10:41:44;;;;;;;7.17;1.05;;;;;;;17.19;38.67;100029.30;1738722;80;21057;-58
2021/09/02 10:44:15;;;;;;;3.50;0.90;;;;;;;17.18;37.22;100033.80;1691675;80;21075;-58
2021/09/02 10:46:49;;;;;;;8.75;1.20;;;;;;;17.19;37.61;100038.60;1673169;84;21084;-57
2021/09/02 10:49:35;;;;;;;5.15;0.98;;;;;;;17.17;39.82;100048.59;1672062;84;21868;-56
2021/09/02 10:52:05;;;;;;;4.17;1.27;;;;;;;17.08;42.25;100050.47;1657870;83;21057;-56
2021/09/02 10:54:38;;;;;;;2.05;0.60;;;;;;;16.87;43.07;100058.50;1659040;83;20969;-56
2021/09/02 10:57:13;;;;;;;3.30;0.98;;;;;;;16.74;42.67;100055.52;1678369;83;21076;-56
2021/09/02 10:59:46;;;;;;;7.08;1.57;;;;;;;16.60;42.27;100059.72;1671685;84;21151;-57
2021/09/02 11:02:24;;;;;;;4.08;1.27;;;;;;;16.51;39.81;100058.92;1674169;84;21109;-56
2021/09/02 11:05:02;;;;;;;4.40;0.98;;;;;;;16.51;40.44;100068.72;1675762;82;21032;-56
2021/09/02 11:07:47;;;;;;;5.12;1.40;;;;;;;16.55;41.23;100069.20;1710795;82;21352;-56
2021/09/02 11:10:18;;;;;;;6.12;1.35;;;;;;;16.62;40.47;100067.52;1677142;82;21130;-56
2021/09/02 11:12:46;;;;;;;5.03;1.30;;;;;;;16.68;39.10;100063.69;1704905;82;21213;-56
2021/09/02 11:15:22;;;;;;;9.05;1.35;;;;;;;16.76;38.93;100081.45;1700720;82;21007;-57
2021/09/02 11:17:58;;;;;;;4.37;1.25;;;;;;;16.80;38.85;100074.78;1708770;82;21102;-56
2021/09/02 11:20:30;;;;;;;7.75;3.25;;;;;;;16.80;38.42;100085.41;1685973;82;21110;-56
2021/09/02 11:23:17;;;;;;;8.60;2.42;;;;;;;16.85;39.02;100074.30;1712384;82;21096;-56
2021/09/02 11:25:49;;;;;;;;;;;;;;;16.96;39.43;100079.73;1679081;83;21191;-56
2021/09/02 11:28:18;;;;;;;5.95;1.98;;;;;;;17.08;37.40;100086.35;1705293;82;21678;-56
2021/09/02 11:30:44;;;;;;;5.40;1.50;;;;;;;17.07;36.05;100093.98;1684536;83;21066;-55
2021/09/02 11:33:11;;;;;;;5.05;1.25;;;;;;;17.08;37.13;100100.46;1707612;82;21443;-56
2021/09/02 11:35:39;;;;;;;4.03;0.85;;;;;;;17.09;37.99;100106.59;1703214;82;21077;-56
2021/09/02 11:38:05;;;;;;;5.05;1.65;;;;;;;17.11;37.87;100109.09;1703966;82;21190;-56
2021/09/02 11:40:34;;;;;;;4.17;1.00;;;;;;;17.14;36.88;100102.92;1707089;82;21138;-57
2021/09/02 11:43:00;;;;;;;5.60;1.20;;;;;;;17.11;34.92;100092.63;1704776;82;21118;-57
2021/09/02 11:45:32;;;;;;;7.08;1.85;;;;;;;17.11;36.29;100110.41;1708461;82;21153;-57